Time;durP1;ratioP1;P1;durP2;ratioP2;P2;SDS_P1;SDS_P2;PMS_P1;PMS_P2;Temp;Humidity;BMP_temperature;BMP_pressure;BME280_temperature;BME280_humidity;BME280_pressure;Samples;Min_cycle;Max_cycle;Signal;HPM_P1;HPM_P2
2023/08/13 00:01:19;;;;;;;5.90;5.40;;;;;;;21.23;81.51;98974.16;5118175;27;19943;-90
2023/08/13 00:03:44;;;;;;;6.00;5.50;;;;;;;21.26;81.09;98967.66;5124785;27;20050;-92
2023/08/13 00:06:12;;;;;;;6.53;5.93;;;;;;;21.09;82.50;98950.72;5122606;27;20036;-91
2023/08/13 00:08:37;;;;;;;6.20;5.70;;;;;;;21.21;83.45;98969.78;5116563;27;20039;-91
2023/08/13 00:11:08;;;;;;;6.10;5.60;;;;;;;21.03;83.93;98948.44;5120015;27;20094;-90
2023/08/13 00:13:33;;;;;;;6.82;6.22;;;;;;;21.00;85.62;98959.47;5101538;27;20066;-91
2023/08/13 00:15:59;;;;;;;6.68;6.07;;;;;;;21.03;85.31;98972.78;5119942;27;20492;-91
2023/08/13 00:18:26;;;;;;;6.20;5.70;;;;;;;20.97;86.12;98977.72;5105708;27;20460;-91
2023/08/13 00:20:51;;;;;;;6.63;6.03;;;;;;;20.93;86.75;98968.97;5103211;28;20051;-91
2023/08/13 00:23:18;;;;;;;7.30;5.78;;;;;;;20.88;85.54;98968.38;5119443;27;20078;-92
2023/08/13 00:25:44;;;;;;;5.93;5.43;;;;;;;20.82;85.68;98966.97;5120506;27;20046;-91
2023/08/13 00:28:10;;;;;;;6.22;5.63;;;;;;;20.71;85.10;98959.56;5120517;27;20451;-91
2023/08/13 00:30:36;;;;;;;7.35;5.57;;;;;;;20.86;84.05;98965.81;5109040;27;20397;-92
2023/08/13 00:33:02;;;;;;;6.40;5.80;;;;;;;20.83;84.00;98959.72;5114546;27;20039;-90
2023/08/13 00:35:27;;;;;;;6.70;6.00;;;;;;;20.87;83.76;98963.97;5119176;27;20049;-90
2023/08/13 00:37:53;;;;;;;6.50;5.90;;;;;;;20.69;84.56;98944.44;5121436;27;20077;-90
2023/08/13 00:40:21;;;;;;;6.38;5.78;;;;;;;20.77;84.81;98952.88;5119858;27;20031;-91
2023/08/13 00:42:46;;;;;;;6.57;5.97;;;;;;;20.85;85.05;98968.59;5124273;27;20122;-91
2023/08/13 00:45:12;;;;;;;6.32;5.75;;;;;;;20.77;85.27;98962.81;5123505;27;20125;-91
2023/08/13 00:47:38;;;;;;;6.75;6.05;;;;;;;20.77;85.25;98958.28;5125514;27;20039;-91
2023/08/13 00:50:05;;;;;;;5.82;5.32;;;;;;;20.74;85.28;98949.53;5127963;27;20047;-90
2023/08/13 00:52:32;;;;;;;9.00;7.05;;;;;;;20.84;84.77;98959.63;5122741;27;20039;-89
2023/08/13 00:54:58;;;;;;;6.68;6.10;;;;;;;20.90;84.13;98958.34;5121740;27;20511;-92
2023/08/13 00:57:25;;;;;;;6.13;5.55;;;;;;;20.80;83.59;98930.22;5124692;27;20046;-91
2023/08/13 00:59:51;;;;;;;7.30;6.60;;;;;;;20.94;83.37;98951.75;5122959;27;20053;-91
2023/08/13 01:02:17;;;;;;;6.95;6.30;;;;;;;20.92;82.46;98930.22;5120818;27;20031;-92
2023/08/13 01:04:43;;;;;;;6.57;6.03;;;;;;;21.06;82.11;98945.53;5123694;27;20088;-91
2023/08/13 01:07:20;;;;;;;6.75;6.15;;;;;;;21.01;82.69;98952.22;5121307;27;20530;-91
2023/08/13 01:10:09;;;;;;;6.65;6.05;;;;;;;20.84;83.02;98937.13;5121736;27;20076;-91
2023/08/13 01:12:42;;;;;;;7.25;6.43;;;;;;;21.02;82.40;98960.22;5121309;27;20037;-91
2023/08/13 01:15:13;;;;;;;7.15;6.55;;;;;;;21.02;82.72;98962.94;5118526;27;20039;-90
2023/08/13 01:17:40;;;;;;;7.57;6.70;;;;;;;21.04;83.91;98961.00;5110964;27;20422;-91
2023/08/13 01:20:07;;;;;;;9.82;6.78;;;;;;;20.99;84.78;98952.34;5124264;27;20031;-91
2023/08/13 01:22:37;;;;;;;6.60;6.00;;;;;;;20.92;85.17;98957.25;5123565;27;20035;-91
2023/08/13 01:25:05;;;;;;;7.03;6.38;;;;;;;20.86;86.50;98956.81;5123382;27;20630;-91
2023/08/13 01:27:38;;;;;;;7.27;6.67;;;;;;;20.71;88.00;98961.41;5124016;27;20027;-91
2023/08/13 01:30:10;;;;;;;7.18;6.57;;;;;;;20.60;89.26;98950.41;5114266;27;20383;-91
2023/08/13 01:32:41;;;;;;;6.93;6.22;;;;;;;20.55;89.01;98953.38;5112223;27;20042;-90
2023/08/13 01:35:09;;;;;;;7.55;6.90;;;;;;;20.47;90.04;98951.19;5115782;27;20062;-91
2023/08/13 01:37:37;;;;;;;7.87;7.13;;;;;;;20.30;90.94;98938.78;5121629;27;20035;-90
2023/08/13 01:40:04;;;;;;;8.10;7.30;;;;;;;20.26;92.77;98945.34;5122600;27;20039;-90
2023/08/13 01:42:32;;;;;;;8.02;7.22;;;;;;;20.19;95.44;98937.72;5114511;27;20039;-91
2023/08/13 01:44:58;;;;;;;7.27;6.57;;;;;;;20.16;95.48;98938.78;5117906;27;20049;-90
2023/08/13 01:47:23;;;;;;;8.27;7.57;;;;;;;20.16;96.69;98935.22;5089212;28;20051;-91
2023/08/13 01:49:49;;;;;;;8.40;7.60;;;;;;;20.16;97.10;98935.22;5091366;28;20038;-91
2023/08/13 01:52:15;;;;;;;8.40;7.60;;;;;;;20.11;97.89;98933.69;5092134;28;20032;-91
2023/08/13 01:54:42;;;;;;;7.93;7.22;;;;;;;19.97;98.45;98919.31;5092089;28;20032;-92
2023/08/13 01:57:08;;;;;;;8.20;7.50;;;;;;;20.06;99.74;98945.72;5092919;28;20035;-90
2023/08/13 01:59:34;;;;;;;8.60;7.70;;;;;;;20.00;100.00;98935.34;5093168;28;20037;-91
2023/08/13 02:01:59;;;;;;;8.85;7.80;;;;;;;19.91;100.00;98936.78;5089049;28;20031;-90
2023/08/13 02:04:25;;;;;;;8.38;7.68;;;;;;;19.89;100.00;98946.81;5091422;28;20039;-91
2023/08/13 02:06:51;;;;;;;9.07;8.15;;;;;;;19.79;100.00;98932.16;5093579;28;20035;-90
2023/08/13 02:09:17;;;;;;;9.10;8.20;;;;;;;19.78;100.00;98935.78;5091567;28;20448;-91
2023/08/13 02:11:44;;;;;;;9.35;7.85;;;;;;;19.71;100.00;98940.69;5091428;28;20039;-91
2023/08/13 02:14:09;;;;;;;8.45;7.65;;;;;;;19.64;100.00;98933.94;5091989;28;20127;-91
2023/08/13 02:16:35;;;;;;;9.32;8.45;;;;;;;19.63;100.00;98943.00;5090416;28;20032;-92
2023/08/13 02:19:01;;;;;;;8.68;7.88;;;;;;;19.55;100.00;98931.81;5090386;28;20060;-91
2023/08/13 02:21:27;;;;;;;9.07;8.27;;;;;;;19.57;100.00;98938.84;5091402;28;20031;-91
2023/08/13 02:23:53;;;;;;;8.95;8.10;;;;;;;19.58;100.00;98942.38;5093111;28;20043;-91
2023/08/13 02:26:18;;;;;;;9.18;8.15;;;;;;;19.49;100.00;98928.50;5092421;28;20130;-91
2023/08/13 02:28:45;;;;;;;9.15;8.25;;;;;;;19.43;100.00;98918.13;5092432;28;20035;-91
2023/08/13 02:31:11;;;;;;;8.98;8.25;;;;;;;19.62;100.00;98949.34;5088776;28;20123;-91
2023/08/13 02:33:37;;;;;;;10.32;9.35;;;;;;;19.51;100.00;98950.00;5090310;28;20131;-92
2023/08/13 02:36:03;;;;;;;7.97;7.28;;;;;;;19.49;100.00;98947.38;5092732;28;20032;-91
2023/08/13 02:38:29;;;;;;;9.00;8.20;;;;;;;19.53;100.00;98950.75;5091836;28;20509;-91
2023/08/13 02:40:55;;;;;;;9.57;8.68;;;;;;;19.40;100.00;98914.72;5092712;28;20546;-91
2023/08/13 02:43:20;;;;;;;10.77;9.23;;;;;;;19.29;100.00;98916.22;5093239;28;20089;-91
2023/08/13 02:45:48;;;;;;;10.80;8.23;;;;;;;19.27;100.00;98939.72;5089513;28;20038;-90
2023/08/13 02:48:13;;;;;;;9.25;8.45;;;;;;;19.34;100.00;98936.66;5111693;28;20138;-91
2023/08/13 02:50:39;;;;;;;10.10;9.07;;;;;;;19.35;100.00;98939.28;5111487;28;20126;-91
2023/08/13 02:53:05;;;;;;;10.50;9.38;;;;;;;19.34;100.00;98940.22;5111170;28;20124;-90
2023/08/13 02:55:30;;;;;;;10.35;9.35;;;;;;;19.35;100.00;98927.63;5111720;28;20459;-91
2023/08/13 02:57:56;;;;;;;10.50;9.60;;;;;;;19.41;100.00;98933.50;5112976;28;20123;-89
2023/08/13 03:00:22;;;;;;;9.60;8.63;;;;;;;19.34;100.00;98926.72;5109494;28;20174;-90
2023/08/13 03:02:49;;;;;;;10.27;9.38;;;;;;;19.29;100.00;98928.84;5113841;27;20043;-91
2023/08/13 03:05:15;;;;;;;10.98;10.07;;;;;;;19.20;100.00;98915.94;5116785;27;20035;-91
2023/08/13 03:07:41;;;;;;;11.48;10.35;;;;;;;19.26;100.00;98929.06;5116469;27;20084;-91
2023/08/13 03:10:08;;;;;;;11.52;10.52;;;;;;;19.11;100.00;98916.50;5115736;27;20774;-91
2023/08/13 03:12:33;;;;;;;10.00;9.10;;;;;;;19.14;100.00;98909.06;5116857;27;20058;-91
2023/08/13 03:14:59;;;;;;;11.20;10.20;;;;;;;18.96;100.00;98907.50;5129471;27;20059;-92
2023/08/13 03:17:25;;;;;;;10.30;9.50;;;;;;;19.00;100.00;98926.06;5097627;27;20054;-92
2023/08/13 03:19:52;;;;;;;11.77;10.85;;;;;;;18.97;100.00;98931.63;5110387;27;20036;-93
2023/08/13 03:22:18;;;;;;;11.48;10.32;;;;;;;18.91;100.00;98932.00;5116831;27;20043;-90
2023/08/13 03:24:44;;;;;;;11.68;10.70;;;;;;;18.80;100.00;98908.41;5115192;27;20084;-90
2023/08/13 03:27:09;;;;;;;11.85;10.80;;;;;;;18.84;100.00;98939.56;5114836;27;20062;-91
2023/08/13 03:29:35;;;;;;;12.43;11.35;;;;;;;18.88;100.00;98930.34;5114805;27;20053;-91
2023/08/13 03:32:01;;;;;;;12.55;11.40;;;;;;;18.82;100.00;98932.53;5109762;27;20036;-90
2023/08/13 03:34:27;;;;;;;12.32;11.05;;;;;;;18.83;100.00;98947.75;5114644;27;20035;-91
2023/08/13 03:36:54;;;;;;;13.10;11.98;;;;;;;18.76;100.00;98925.66;5116205;27;22056;-90
2023/08/13 03:39:20;;;;;;;13.50;12.30;;;;;;;18.64;100.00;98921.84;5114730;27;20046;-91
2023/08/13 03:41:45;;;;;;;14.10;12.95;;;;;;;18.79;100.00;98951.59;5114742;27;20031;-90
2023/08/13 03:44:11;;;;;;;13.95;12.48;;;;;;;18.68;100.00;98939.56;5114571;27;20095;-91
2023/08/13 03:46:37;;;;;;;13.10;12.00;;;;;;;18.74;100.00;98949.13;5112486;27;20045;-90
2023/08/13 03:49:03;;;;;;;13.73;12.63;;;;;;;18.58;100.00;98938.34;5115374;27;20134;-91
2023/08/13 03:51:29;;;;;;;14.05;12.75;;;;;;;18.57;100.00;98947.41;5123529;27;20039;-90
2023/08/13 03:53:56;;;;;;;14.88;13.38;;;;;;;18.50;100.00;98954.09;5100064;27;20422;-90
2023/08/13 03:56:24;;;;;;;14.38;13.18;;;;;;;18.35;100.00;98942.34;5099820;27;20043;-90
2023/08/13 03:58:50;;;;;;;14.70;13.57;;;;;;;18.34;100.00;98950.50;5107629;27;20031;-90
2023/08/13 04:01:16;;;;;;;15.75;14.38;;;;;;;18.40;100.00;98953.72;5123893;27;20690;-91
2023/08/13 04:03:42;;;;;;;16.33;15.00;;;;;;;18.49;100.00;98952.34;5115267;27;20027;-90
2023/08/13 04:06:08;;;;;;;16.48;15.15;;;;;;;18.56;100.00;98956.41;5114239;27;20103;-91
2023/08/13 04:08:35;;;;;;;15.57;14.27;;;;;;;18.44;100.00;98949.03;5114791;27;20042;-91
2023/08/13 04:11:02;;;;;;;15.93;14.55;;;;;;;18.43;100.00;98950.88;5114238;27;20043;-91
2023/08/13 04:13:28;;;;;;;15.43;14.20;;;;;;;18.32;100.00;98939.81;5114389;27;20049;-91
2023/08/13 04:15:54;;;;;;;15.63;14.57;;;;;;;18.35;100.00;98938.81;5112000;27;20044;-91
2023/08/13 04:18:19;;;;;;;15.93;14.63;;;;;;;18.52;100.00;98946.78;5114430;27;20043;-91
2023/08/13 04:20:45;;;;;;;16.30;15.00;;;;;;;18.61;100.00;98937.31;5114701;27;20042;-90
2023/08/13 04:23:11;;;;;;;16.73;15.32;;;;;;;18.53;100.00;98924.28;5114101;27;20051;-90
2023/08/13 04:25:37;;;;;;;16.52;15.23;;;;;;;18.68;100.00;98954.84;5112838;27;20041;-90
2023/08/13 04:28:05;;;;;;;18.13;16.67;;;;;;;18.61;100.00;98951.66;5113206;27;20135;-90
2023/08/13 04:30:31;;;;;;;16.17;14.68;;;;;;;18.66;100.00;98954.94;5118265;27;20062;-91
2023/08/13 04:32:57;;;;;;;16.25;15.00;;;;;;;18.67;100.00;98954.00;5103044;27;20055;-91
2023/08/13 04:35:23;;;;;;;16.67;15.27;;;;;;;18.56;100.00;98952.84;5113167;27;20036;-90
2023/08/13 04:37:49;;;;;;;18.17;16.55;;;;;;;18.45;100.00;98942.69;5113469;27;20534;-90
2023/08/13 04:40:14;;;;;;;18.10;16.42;;;;;;;18.64;100.00;98956.84;5112064;27;20035;-91
2023/08/13 04:42:41;;;;;;;18.67;17.17;;;;;;;18.61;100.00;98950.78;5113243;27;20036;-90
2023/08/13 04:45:09;;;;;;;18.42;17.02;;;;;;;18.63;100.00;98963.22;5111302;27;20039;-89
2023/08/13 04:47:34;;;;;;;19.45;17.85;;;;;;;18.70;100.00;98960.16;5109024;28;20047;-91
2023/08/13 04:50:00;;;;;;;19.05;17.42;;;;;;;18.70;100.00;98949.41;5108148;28;20539;-90
2023/08/13 04:52:26;;;;;;;20.30;18.50;;;;;;;18.83;100.00;98939.66;5109967;28;20561;-90
2023/08/13 04:54:52;;;;;;;17.15;15.85;;;;;;;18.94;100.00;98945.28;5110070;28;20058;-90
2023/08/13 04:57:17;;;;;;;17.38;15.85;;;;;;;18.99;100.00;98939.63;5110151;28;20039;-91
2023/08/13 04:59:43;;;;;;;18.30;16.48;;;;;;;19.07;100.00;98954.41;5110779;28;20074;-91
2023/08/13 05:02:11;;;;;;;17.48;16.05;;;;;;;19.07;100.00;98951.69;5106623;28;20077;-90
2023/08/13 05:04:37;;;;;;;17.60;16.15;;;;;;;19.02;100.00;98963.72;5109635;28;20036;-90
2023/08/13 05:07:02;;;;;;;16.30;15.13;;;;;;;19.07;100.00;98959.78;5110089;28;20190;-91
2023/08/13 05:09:28;;;;;;;18.10;16.65;;;;;;;19.12;100.00;98954.13;5102308;28;20040;-90
2023/08/13 05:11:54;;;;;;;18.08;16.73;;;;;;;19.21;100.00;98955.41;5111215;28;20051;-92
2023/08/13 05:14:20;;;;;;;18.20;16.85;;;;;;;19.19;100.00;98958.22;5109797;28;20119;-91
2023/08/13 05:16:45;;;;;;;18.10;16.50;;;;;;;19.22;100.00;98951.75;5107800;28;20059;-91
2023/08/13 05:19:13;;;;;;;17.58;16.17;;;;;;;19.27;100.00;98957.72;5125485;27;20052;-90
2023/08/13 05:21:38;;;;;;;17.88;16.27;;;;;;;19.28;100.00;98952.25;5110076;28;20084;-91
2023/08/13 05:24:05;;;;;;;18.05;16.45;;;;;;;19.47;100.00;98965.50;5108324;28;20443;-91
2023/08/13 05:26:31;;;;;;;17.73;16.20;;;;;;;19.57;100.00;98962.25;5108209;28;20519;-90
2023/08/13 05:28:57;;;;;;;16.70;15.48;;;;;;;19.82;100.00;98951.72;5110160;28;20035;-91
2023/08/13 05:31:23;;;;;;;17.15;15.55;;;;;;;20.25;100.00;98954.38;5106608;28;20046;-91
2023/08/13 05:33:48;;;;;;;17.20;15.70;;;;;;;20.60;100.00;98956.72;5109361;28;20100;-91
2023/08/13 05:36:16;;;;;;;17.65;15.93;;;;;;;21.01;100.00;98966.59;5109872;28;20086;-91
2023/08/13 05:38:41;;;;;;;18.73;17.23;;;;;;;21.25;100.00;98957.81;5109528;28;20407;-90
2023/08/13 05:41:07;;;;;;;19.00;17.35;;;;;;;21.47;100.00;98968.06;5108910;28;20036;-91
2023/08/13 05:43:33;;;;;;;21.70;19.88;;;;;;;21.72;100.00;98967.22;5111406;28;20130;-90
2023/08/13 05:45:59;;;;;;;21.58;19.70;;;;;;;21.89;100.00;98964.19;5107415;28;20075;-90
2023/08/13 05:48:24;;;;;;;21.63;19.80;;;;;;;21.91;100.00;98964.97;5098255;28;20031;-91
2023/08/13 05:50:50;;;;;;;21.92;20.30;;;;;;;21.99;100.00;98968.97;5096776;28;20063;-90
2023/08/13 05:53:17;;;;;;;21.17;19.48;;;;;;;21.91;100.00;98956.84;5108486;27;20412;-90
2023/08/13 05:55:44;;;;;;;20.10;18.67;;;;;;;22.03;100.00;98959.66;5098294;27;20119;-90
2023/08/13 05:58:10;;;;;;;20.98;19.58;;;;;;;22.19;100.00;98965.72;5103322;28;20377;-90
2023/08/13 06:00:37;;;;;;;22.25;20.15;;;;;;;21.83;100.00;98956.50;5093673;28;20126;-91
2023/08/13 06:03:03;;;;;;;20.73;19.08;;;;;;;21.62;100.00;98941.78;5094410;27;20049;-90
2023/08/13 06:05:28;;;;;;;21.30;19.80;;;;;;;21.31;100.00;98969.06;5100758;28;20500;-90
2023/08/13 06:07:54;;;;;;;20.80;19.05;;;;;;;21.40;100.00;98967.56;5106337;28;20031;-91
2023/08/13 06:10:21;;;;;;;21.63;20.02;;;;;;;21.45;100.00;98972.72;5106072;28;20031;-90
2023/08/13 06:12:47;;;;;;;20.42;18.42;;;;;;;21.26;100.00;98970.38;5103851;28;20062;-91
2023/08/13 06:15:13;;;;;;;21.42;19.73;;;;;;;21.24;100.00;98972.31;5097082;28;20839;-92
2023/08/13 06:17:42;;;;;;;20.58;18.85;;;;;;;21.41;100.00;98974.75;5097774;28;20408;-90
2023/08/13 06:20:10;;;;;;;20.70;19.17;;;;;;;21.58;100.00;98981.72;5103223;28;20122;-91
2023/08/13 06:22:35;;;;;;;18.63;17.13;;;;;;;21.72;100.00;98978.91;5105379;28;20039;-92
2023/08/13 06:25:01;;;;;;;19.75;17.98;;;;;;;21.88;100.00;98980.53;5104084;28;20031;-90
2023/08/13 06:27:28;;;;;;;18.48;16.70;;;;;;;22.02;100.00;98974.19;5104068;28;20057;-91
2023/08/13 06:29:54;;;;;;;18.15;16.63;;;;;;;21.97;100.00;98965.50;5086413;28;20674;-90
2023/08/13 06:32:20;;;;;;;19.40;17.85;;;;;;;21.94;100.00;98956.63;5100820;28;20126;-91
2023/08/13 06:34:46;;;;;;;20.00;18.42;;;;;;;22.45;100.00;98968.41;5101468;28;20035;-90
2023/08/13 06:37:11;;;;;;;18.58;17.23;;;;;;;22.77;100.00;98974.19;5106706;27;20032;-91
2023/08/13 06:39:37;;;;;;;18.05;16.65;;;;;;;23.08;100.00;98975.50;5108492;27;20040;-91
2023/08/13 06:42:04;;;;;;;17.85;16.55;;;;;;;23.43;100.00;98965.66;5106345;27;20038;-91
2023/08/13 06:44:32;;;;;;;18.10;16.75;;;;;;;23.52;100.00;98975.78;5102107;27;20119;-91
2023/08/13 06:46:58;;;;;;;19.08;17.67;;;;;;;23.42;100.00;98978.38;5117529;27;20047;-89
2023/08/13 06:49:23;;;;;;;18.98;17.60;;;;;;;23.60;100.00;98965.22;5126947;27;20411;-90
2023/08/13 06:51:49;;;;;;;21.33;19.83;;;;;;;23.86;100.00;98967.78;5129360;27;20027;-90
2023/08/13 06:54:15;;;;;;;23.30;21.67;;;;;;;24.27;100.00;98969.06;5130340;27;20587;-90
2023/08/13 06:56:41;;;;;;;28.17;26.38;;;;;;;24.54;97.12;98966.81;5127406;27;20496;-91
2023/08/13 06:59:07;;;;;;;24.70;23.20;;;;;;;24.83;95.62;98979.91;5125883;27;20030;-91
2023/08/13 07:01:34;;;;;;;26.40;24.60;;;;;;;24.98;92.67;98975.91;5124688;27;20059;-93
2023/08/13 07:03:59;;;;;;;24.13;22.45;;;;;;;25.07;91.33;98960.66;5126942;27;20543;-91
2023/08/13 07:06:25;;;;;;;23.65;22.25;;;;;;;25.29;89.76;98977.94;5128023;27;20054;-90
2023/08/13 07:08:52;;;;;;;23.65;22.00;;;;;;;25.15;89.96;98981.78;5127240;27;20035;-92
2023/08/13 07:11:17;;;;;;;22.05;20.70;;;;;;;25.13;90.18;98970.16;5123731;27;20047;-90
2023/08/13 07:13:43;;;;;;;25.33;22.85;;;;;;;25.03;92.54;98983.69;5127731;27;21530;-91
2023/08/13 07:16:11;;;;;;;23.80;22.10;;;;;;;25.29;89.96;98981.53;5123594;27;20125;-91
2023/08/13 07:18:39;;;;;;;21.75;20.23;;;;;;;24.83;90.92;98966.31;5128699;27;20422;-91
2023/08/13 07:21:06;;;;;;;21.40;20.10;;;;;;;24.83;92.41;98966.31;5124692;27;20031;-92
2023/08/13 07:23:32;;;;;;;21.70;20.38;;;;;;;25.20;89.98;98969.56;5123422;27;20055;-91
2023/08/13 07:25:58;;;;;;;21.48;19.92;;;;;;;25.58;88.22;98979.03;5125141;27;20045;-92
2023/08/13 07:28:23;;;;;;;21.05;19.45;;;;;;;25.84;86.25;98970.47;5126558;27;20030;-91
2023/08/13 07:30:49;;;;;;;20.30;19.00;;;;;;;25.92;86.31;98972.56;5123951;27;20087;-92
2023/08/13 07:33:15;;;;;;;19.02;17.73;;;;;;;26.03;87.83;98981.50;5124703;27;20486;-91
2023/08/13 07:35:42;;;;;;;22.52;21.02;;;;;;;26.23;83.43;98974.31;5126828;27;20043;-91
2023/08/13 07:38:08;;;;;;;22.73;21.13;;;;;;;26.48;82.90;98972.13;5126802;27;20064;-91
2023/08/13 07:40:34;;;;;;;21.83;20.42;;;;;;;26.71;81.85;98972.78;5125351;27;20396;-90
2023/08/13 07:43:00;;;;;;;23.10;21.67;;;;;;;27.01;80.65;98973.72;5122542;27;20091;-91
2023/08/13 07:45:26;;;;;;;24.98;23.58;;;;;;;26.95;79.89;98953.31;5123227;27;20039;-91
2023/08/13 07:47:52;;;;;;;27.95;26.08;;;;;;;26.46;80.07;98978.69;5126734;27;20056;-90
2023/08/13 07:50:18;;;;;;;28.00;26.05;;;;;;;26.28;82.55;98960.25;5120041;27;20046;-91
2023/08/13 07:52:45;;;;;;;25.30;23.80;;;;;;;26.64;82.27;98960.72;5125724;27;20088;-91
2023/08/13 07:55:11;;;;;;;26.23;24.63;;;;;;;27.01;81.35;98965.53;5124379;27;20108;-92
2023/08/13 07:57:37;;;;;;;27.67;26.00;;;;;;;27.22;78.65;98969.06;5125572;27;20028;-92
2023/08/13 08:00:07;;;;;;;26.60;25.00;;;;;;;27.48;78.09;98971.22;5121738;27;20073;-91
2023/08/13 08:02:34;;;;;;;26.63;25.17;;;;;;;27.54;77.51;98972.50;5124806;27;20114;-92
2023/08/13 08:05:00;;;;;;;27.10;25.52;;;;;;;27.40;77.78;98957.41;5120655;27;20042;-92
2023/08/13 08:07:27;;;;;;;25.73;24.33;;;;;;;27.39;74.88;98963.88;5124165;27;20066;-91
2023/08/13 08:09:54;;;;;;;25.73;24.20;;;;;;;27.47;75.64;98950.34;5122624;27;20031;-92
2023/08/13 08:12:20;;;;;;;25.73;24.27;;;;;;;27.73;74.24;98963.41;5121650;27;20039;-91
2023/08/13 08:14:46;;;;;;;23.90;22.60;;;;;;;27.86;72.86;98953.91;5126728;27;20034;-91
2023/08/13 08:17:11;;;;;;;23.48;22.17;;;;;;;28.08;72.38;98940.06;5119892;27;20487;-92
2023/08/13 08:19:37;;;;;;;22.50;21.15;;;;;;;28.41;70.75;98949.56;5125499;27;20477;-91
2023/08/13 08:22:03;;;;;;;21.70;20.50;;;;;;;28.66;57.43;98956.25;5124888;27;20062;-92
2023/08/13 08:24:33;;;;;;;18.25;17.15;;;;;;;28.71;46.54;98948.44;5117860;27;20129;-91
2023/08/13 08:27:00;;;;;;;18.63;17.52;;;;;;;28.61;46.06;98950.38;5119828;27;20046;-91
2023/08/13 08:29:26;;;;;;;16.17;15.18;;;;;;;28.73;46.38;98949.16;5124767;27;20058;-91
2023/08/13 08:31:52;;;;;;;17.00;16.00;;;;;;;28.13;45.03;98948.66;5120121;27;20491;-90
2023/08/13 08:34:18;;;;;;;14.82;13.93;;;;;;;28.17;43.62;98944.63;5127350;27;20070;-92
2023/08/13 08:36:43;;;;;;;17.20;16.20;;;;;;;28.42;44.64;98943.94;5123812;27;20055;-91
2023/08/13 08:39:09;;;;;;;15.82;14.88;;;;;;;28.63;44.42;98948.38;5121038;27;20210;-92
2023/08/13 08:41:36;;;;;;;16.42;15.10;;;;;;;28.86;44.58;98940.56;5124012;27;20481;-91
2023/08/13 08:44:07;;;;;;;15.40;14.45;;;;;;;28.91;42.71;98937.38;5122906;27;20041;-91
2023/08/13 08:46:33;;;;;;;13.93;12.82;;;;;;;29.15;42.20;98950.47;5119206;27;20119;-92
2023/08/13 08:49:00;;;;;;;13.02;12.20;;;;;;;29.06;42.41;98941.28;5122800;27;20435;-92
2023/08/13 08:51:26;;;;;;;13.40;12.50;;;;;;;29.29;43.70;98947.22;5136115;27;20047;-91
2023/08/13 08:53:53;;;;;;;11.88;11.07;;;;;;;29.15;41.44;98945.91;5123830;27;20403;-92
2023/08/13 08:56:21;;;;;;;11.15;10.45;;;;;;;29.28;41.13;98945.50;5125801;27;20543;-92
2023/08/13 08:58:46;;;;;;;10.87;10.07;;;;;;;29.21;40.81;98939.78;5120349;27;20125;-90
2023/08/13 09:01:13;;;;;;;10.57;9.88;;;;;;;29.46;41.33;98937.28;5121857;27;20495;-91
2023/08/13 09:03:39;;;;;;;10.05;9.35;;;;;;;29.42;39.13;98927.63;5122683;27;20137;-91
2023/08/13 09:06:05;;;;;;;9.13;8.52;;;;;;;29.63;38.76;98919.94;5118802;27;20130;-91
2023/08/13 09:08:31;;;;;;;9.13;8.52;;;;;;;29.97;39.12;98935.63;5121415;27;20052;-92
2023/08/13 09:10:56;;;;;;;9.48;8.77;;;;;;;30.02;37.29;98930.53;5114723;27;20395;-92
2023/08/13 09:13:22;;;;;;;8.65;8.05;;;;;;;29.67;37.45;98913.13;5125985;27;20038;-93
2023/08/13 09:15:49;;;;;;;9.40;8.70;;;;;;;29.66;39.13;98930.56;5119842;27;20032;-92
2023/08/13 09:18:16;;;;;;;8.63;8.02;;;;;;;30.06;38.81;98934.66;5121909;27;20031;-90
2023/08/13 09:20:43;;;;;;;8.13;7.60;;;;;;;30.12;38.08;98926.78;5140949;27;20062;-92
2023/08/13 09:23:09;;;;;;;8.18;7.57;;;;;;;30.35;39.42;98917.00;5123084;27;20436;-92
2023/08/13 09:25:35;;;;;;;8.50;7.90;;;;;;;30.70;37.33;98931.56;5120127;27;20061;-91
2023/08/13 09:28:01;;;;;;;7.78;7.18;;;;;;;30.83;36.13;98917.34;5123651;27;20368;-90
2023/08/13 09:30:31;;;;;;;8.68;7.60;;;;;;;30.69;34.70;98908.75;5117424;27;20062;-92
2023/08/13 09:32:57;;;;;;;7.85;7.25;;;;;;;30.69;35.11;98902.41;5120675;27;20433;-91
2023/08/13 09:35:25;;;;;;;7.93;7.22;;;;;;;30.69;34.14;98921.63;5120857;27;20035;-92
2023/08/13 09:37:51;;;;;;;8.03;7.50;;;;;;;30.81;37.04;98916.66;5122279;27;20500;-91
2023/08/13 09:40:17;;;;;;;13.02;7.28;;;;;;;31.02;33.89;98911.59;5120770;27;20091;-92
2023/08/13 09:42:44;;;;;;;8.15;7.50;;;;;;;31.04;35.15;98894.97;5124562;27;20063;-92
2023/08/13 09:45:10;;;;;;;7.30;6.80;;;;;;;31.09;34.42;98911.78;5125301;27;20040;-92
2023/08/13 09:47:39;;;;;;;8.55;7.88;;;;;;;30.96;34.60;98911.41;5125909;27;20503;-93
2023/08/13 09:50:06;;;;;;;8.02;7.32;;;;;;;30.87;32.91;98889.41;5120723;27;20060;-92
2023/08/13 09:52:35;;;;;;;8.25;7.57;;;;;;;30.92;32.74;98899.91;5122211;27;20127;-92
2023/08/13 09:55:08;;;;;;;7.38;6.88;;;;;;;30.99;33.14;98908.31;5123388;27;20034;-92
2023/08/13 09:57:36;;;;;;;8.95;8.05;;;;;;;30.69;34.49;98896.91;5122657;27;20495;-93
2023/08/13 10:00:03;;;;;;;8.32;7.63;;;;;;;30.85;35.29;98898.81;5119234;27;20735;-92
2023/08/13 10:02:29;;;;;;;8.35;7.65;;;;;;;31.07;35.26;98900.94;5140589;27;20031;-92
2023/08/13 10:04:56;;;;;;;8.93;8.13;;;;;;;30.90;36.35;98900.09;5120933;27;20515;-91
2023/08/13 10:07:23;;;;;;;8.10;7.50;;;;;;;31.12;34.80;98897.69;5119186;27;20400;-91
2023/08/13 10:09:51;;;;;;;7.55;6.97;;;;;;;31.11;34.42;98893.25;5125790;27;20489;-94
2023/08/13 10:12:17;;;;;;;7.80;7.30;;;;;;;30.91;35.11;98887.22;5137390;27;20083;-95
2023/08/13 10:14:43;;;;;;;8.18;7.47;;;;;;;31.08;34.30;98894.44;5126357;27;20084;-92
2023/08/13 10:17:14;;;;;;;7.78;7.18;;;;;;;31.24;35.32;98893.59;5119215;27;20043;-93
2023/08/13 10:19:45;;;;;;;7.50;7.00;;;;;;;31.26;34.14;98897.03;5121449;27;20573;-91
2023/08/13 10:22:11;;;;;;;8.05;7.35;;;;;;;31.26;34.25;98886.03;5123896;27;20122;-92
2023/08/13 10:24:37;;;;;;;8.02;7.50;;;;;;;31.42;33.40;98890.69;5121907;27;20083;-93
2023/08/13 10:27:05;;;;;;;7.53;7.03;;;;;;;31.53;34.63;98892.25;5118534;27;20035;-92
2023/08/13 10:29:40;;;;;;;7.05;6.55;;;;;;;31.31;33.53;98872.63;5123313;27;20031;-92
2023/08/13 10:32:14;;;;;;;7.53;6.93;;;;;;;31.45;34.19;98882.13;5120962;27;20180;-93
2023/08/13 10:34:41;;;;;;;7.82;7.13;;;;;;;31.57;34.85;98868.88;5126615;28;20062;-93
2023/08/13 10:37:17;;;;;;;7.43;6.83;;;;;;;31.56;34.56;98880.91;5125030;27;20041;-91
2023/08/13 10:39:44;;;;;;;7.28;6.75;;;;;;;31.54;35.25;98877.47;5125294;28;20126;-93
2023/08/13 10:42:46;;;;;;;6.82;6.30;;;;;;;31.51;34.73;98875.06;5125277;27;20035;-91
2023/08/13 10:45:15;;;;;;;7.38;6.88;;;;;;;31.54;34.98;98858.25;5122178;27;20375;-91
2023/08/13 10:47:46;;;;;;;7.25;6.72;;;;;;;31.62;33.18;98871.97;5124073;27;20047;-92
2023/08/13 10:50:20;;;;;;;7.63;6.93;;;;;;;31.70;33.33;98873.84;5120474;27;20045;-91
2023/08/13 10:52:49;;;;;;;7.20;6.60;;;;;;;31.62;33.90;98871.97;5118708;27;20564;-92
2023/08/13 10:55:17;;;;;;;7.22;6.63;;;;;;;31.72;34.33;98869.03;5120987;27;20055;-92
2023/08/13 10:57:50;;;;;;;6.70;6.20;;;;;;;31.90;33.50;98863.31;5121501;27;20043;-91
2023/08/13 11:00:17;;;;;;;6.53;6.03;;;;;;;31.95;31.76;98857.31;5117350;27;20042;-92
2023/08/13 11:02:44;;;;;;;6.70;6.20;;;;;;;31.99;31.73;98870.56;5126602;27;20058;-92
2023/08/13 11:05:10;;;;;;;6.43;5.82;;;;;;;31.96;33.80;98865.34;5120732;27;20039;-92
2023/08/13 11:07:36;;;;;;;6.28;5.78;;;;;;;32.05;30.42;98863.47;5123226;27;20039;-91
2023/08/13 11:10:03;;;;;;;5.72;5.22;;;;;;;32.11;30.45;98863.63;5121085;27;20031;-92
2023/08/13 11:12:30;;;;;;;6.20;5.75;;;;;;;31.90;30.40;98877.94;5119448;27;20044;-92
2023/08/13 11:15:00;;;;;;;6.00;5.50;;;;;;;31.85;30.73;98871.25;5125703;27;20043;-91
2023/08/13 11:17:25;;;;;;;7.05;6.40;;;;;;;31.82;30.47;98855.94;5120423;27;20057;-91
2023/08/13 11:19:55;;;;;;;7.47;5.53;;;;;;;31.85;28.70;98855.59;5120858;27;20035;-92